createdAt,value
2022-08-05T00:01:36.204Z,6.50
2022-08-05T00:04:18.496Z,9.80
2022-08-05T00:06:47.528Z,7.70
2022-08-05T00:09:20.558Z,10.30
2022-08-05T00:11:55.859Z,9.10
2022-08-05T00:14:31.374Z,7.70
2022-08-05T00:17:01.813Z,7.30
2022-08-05T00:19:33.616Z,8.40
2022-08-05T00:22:03.508Z,7.70
2022-08-05T00:24:33.100Z,6.40
2022-08-05T00:27:04.624Z,9.10
2022-08-05T00:29:39.041Z,7.40
2022-08-05T00:32:14.768Z,8.20
2022-08-05T00:35:04.002Z,8.10
2022-08-05T00:37:51.322Z,7.40
2022-08-05T00:40:26.850Z,8.00
2022-08-05T00:43:00.895Z,6.80
2022-08-05T00:45:42.898Z,7.50
2022-08-05T00:48:15.873Z,12.80
2022-08-05T00:50:48.525Z,7.20
2022-08-05T00:54:00.499Z,6.90
2022-08-05T00:56:10.273Z,6.70
2022-08-05T00:58:44.898Z,8.70
2022-08-05T01:01:42.098Z,7.80
2022-08-05T01:04:13.895Z,9.00
2022-08-05T01:06:43.836Z,7.80
2022-08-05T01:09:20.042Z,7.80
2022-08-05T01:11:51.846Z,8.20
2022-08-05T01:14:56.071Z,9.70
2022-08-05T01:17:57.682Z,8.40
2022-08-05T01:21:01.492Z,10.90
2022-08-05T01:23:45.386Z,8.70
2022-08-05T01:26:52.531Z,8.30
2022-08-05T01:29:33.150Z,8.50
2022-08-05T01:32:12.551Z,7.50
2022-08-05T01:35:02.918Z,8.30
2022-08-05T01:37:54.699Z,7.80
2022-08-05T01:40:29.595Z,11.20
2022-08-05T01:43:01.063Z,9.10
2022-08-05T01:45:34.949Z,10.50
2022-08-05T01:48:12.579Z,10.00
2022-08-05T01:50:50.865Z,13.80
2022-08-05T01:53:57.545Z,7.50
2022-08-05T01:56:14.096Z,12.20
2022-08-05T01:59:06.709Z,9.20
2022-08-05T02:01:39.967Z,9.00
2022-08-05T02:04:12.032Z,9.20
2022-08-05T02:06:40.809Z,8.60
2022-08-05T02:09:14.744Z,8.20
2022-08-05T02:12:22.495Z,8.20
2022-08-05T02:15:15.595Z,8.20
2022-08-05T02:18:31.263Z,10.00
2022-08-05T02:20:48.877Z,9.70
2022-08-05T02:23:23.281Z,9.10
2022-08-05T02:25:53.613Z,7.40
2022-08-05T02:28:30.536Z,7.70
2022-08-05T02:31:17.245Z,8.80
2022-08-05T02:34:02.280Z,8.80
2022-08-05T02:36:32.638Z,8.80
2022-08-05T02:39:05.047Z,9.10
2022-08-05T02:41:57.480Z,8.50
2022-08-05T02:44:30.277Z,9.10
2022-08-05T02:47:01.068Z,10.30
2022-08-05T02:49:41.784Z,9.70
2022-08-05T02:52:29.797Z,9.20
2022-08-05T02:55:05.411Z,9.10
2022-08-05T02:58:19.991Z,9.70
2022-08-05T03:00:29.340Z,9.40
2022-08-05T03:02:59.280Z,8.80
2022-08-05T03:06:53.646Z,9.00
2022-08-05T03:08:26.986Z,9.00
2022-08-05T03:11:01.281Z,8.90
2022-08-05T03:13:51.683Z,9.00
2022-08-05T03:16:31.802Z,9.00
2022-08-05T03:19:04.288Z,9.70
2022-08-05T03:21:48.914Z,10.00
2022-08-05T03:24:29.563Z,16.90
2022-08-05T03:27:00.159Z,9.70
2022-08-05T03:29:45.634Z,10.40
2022-08-05T03:32:19.683Z,9.80
2022-08-05T03:34:50.531Z,10.10
2022-08-05T03:37:21.425Z,8.70
2022-08-05T03:40:01.896Z,10.70
2022-08-05T03:42:41.511Z,9.20
2022-08-05T03:45:23.274Z,9.90
2022-08-05T03:47:57.009Z,9.70
2022-08-05T03:50:43.206Z,10.60
2022-08-05T03:55:53.092Z,9.60
2022-08-05T03:56:35.210Z,10.50
2022-08-05T03:59:09.711Z,8.50
2022-08-05T04:01:45.226Z,9.30
2022-08-05T04:04:21.245Z,9.30
2022-08-05T04:06:51.763Z,9.60
2022-08-05T04:09:25.980Z,9.10
2022-08-05T04:11:57.137Z,10.50
2022-08-05T04:14:29.733Z,10.00
2022-08-05T04:17:00.646Z,9.70
2022-08-05T04:19:30.086Z,10.30
2022-08-05T04:22:10.401Z,19.40
2022-08-05T04:24:43.869Z,14.80
2022-08-05T04:27:13.958Z,11.80
2022-08-05T04:29:43.910Z,10.40
2022-08-05T04:32:14.014Z,10.90
2022-08-05T04:34:48.539Z,10.90
2022-08-05T04:37:17.056Z,10.90
2022-08-05T04:39:45.658Z,10.30
2022-08-05T04:42:25.356Z,10.90
2022-08-05T04:44:54.185Z,10.40
2022-08-05T04:47:23.033Z,8.40
2022-08-05T04:50:02.569Z,9.50
2022-08-05T04:52:39.612Z,9.40
2022-08-05T04:55:14.605Z,9.90
2022-08-05T04:57:47.887Z,12.90
2022-08-05T05:00:23.674Z,13.50
2022-08-05T05:02:52.556Z,14.90
2022-08-05T05:05:28.654Z,12.00
2022-08-05T05:08:14.456Z,12.20
2022-08-05T05:10:56.685Z,9.90
2022-08-05T05:13:25.400Z,11.60
2022-08-05T05:15:56.522Z,9.50
2022-08-05T05:18:31.375Z,9.40
2022-08-05T05:21:03.759Z,8.80
2022-08-05T05:24:02.044Z,9.60
2022-08-05T05:26:28.434Z,9.60
2022-08-05T05:29:02.367Z,12.40
2022-08-05T05:34:02.516Z,8.60
2022-08-05T05:36:32.020Z,9.80
2022-08-05T05:39:00.576Z,9.20
2022-08-05T05:41:40.874Z,9.40
2022-08-05T05:44:35.921Z,9.20
2022-08-05T05:47:04.605Z,8.70
2022-08-05T05:49:41.994Z,10.20
2022-08-05T05:52:13.067Z,9.40
2022-08-05T05:55:01.325Z,9.20
2022-08-05T05:57:42.794Z,10.20
2022-08-05T06:00:21.939Z,9.90
2022-08-05T06:03:28.272Z,9.70
2022-08-05T06:05:55.573Z,8.80
2022-08-05T06:08:31.498Z,8.40
2022-08-05T06:11:01.835Z,8.40
2022-08-05T06:13:30.441Z,9.10
2022-08-05T06:16:29.543Z,8.40
2022-08-05T06:18:59.957Z,9.30
2022-08-05T06:21:36.881Z,9.10
2022-08-05T06:24:11.852Z,8.90
2022-08-05T06:26:51.286Z,8.40
2022-08-05T06:29:25.161Z,9.40
2022-08-05T06:32:21.430Z,9.40
2022-08-05T06:34:58.727Z,9.20
2022-08-05T06:37:58.354Z,9.40
2022-08-05T06:40:18.118Z,8.50
2022-08-05T06:42:52.335Z,8.90
2022-08-05T06:45:43.984Z,8.60
2022-08-05T06:48:36.216Z,7.80
2022-08-05T06:51:00.230Z,7.90
2022-08-05T06:53:29.375Z,8.70
2022-08-05T06:55:59.606Z,7.60
2022-08-05T06:58:29.723Z,9.10
2022-08-05T07:01:06.796Z,7.70
2022-08-05T07:03:35.628Z,11.00
2022-08-05T07:06:06.086Z,7.60
2022-08-05T07:08:47.628Z,8.30
2022-08-05T07:11:22.675Z,7.90
2022-08-05T07:14:20.236Z,8.80
2022-08-05T07:18:08.484Z,8.10
2022-08-05T07:22:30.085Z,7.80
2022-08-05T07:25:22.459Z,9.40
2022-08-05T07:27:58.585Z,7.10
2022-08-05T07:30:38.922Z,7.80
2022-08-05T07:33:16.135Z,9.10
2022-08-05T07:36:01.557Z,7.10
2022-08-05T07:38:43.421Z,7.10
2022-08-05T07:42:13.563Z,8.80
2022-08-05T07:44:19.255Z,7.50
2022-08-05T07:46:50.305Z,8.60
2022-08-05T07:49:19.929Z,7.60
2022-08-05T07:51:54.861Z,10.40
2022-08-05T07:54:31.042Z,7.00
2022-08-05T07:57:23.680Z,7.10
2022-08-05T07:59:53.632Z,7.00
2022-08-05T08:02:31.233Z,8.10
2022-08-05T08:05:16.603Z,7.90
2022-08-05T08:07:59.678Z,7.70
2022-08-05T08:10:30.302Z,11.30
2022-08-05T08:12:59.203Z,7.90
2022-08-05T08:16:35.877Z,8.80
2022-08-05T08:18:20.966Z,7.20
2022-08-05T08:21:01.907Z,7.10
2022-08-05T08:24:01.968Z,6.40
2022-08-05T08:26:26.954Z,6.50
2022-08-05T08:29:09.727Z,6.50
2022-08-05T08:31:50.455Z,6.30
2022-08-05T08:34:30.268Z,6.20
2022-08-05T08:37:04.670Z,6.30
2022-08-05T08:39:37.331Z,5.80
2022-08-05T08:42:41.961Z,5.60
2022-08-05T08:45:24.776Z,5.50
2022-08-05T08:48:11.777Z,5.10
2022-08-05T08:51:22.319Z,5.60
2022-08-05T08:53:40.330Z,5.20
2022-08-05T08:56:14.340Z,5.40
2022-08-05T08:58:47.894Z,5.10
2022-08-05T09:01:19.703Z,4.90
2022-08-05T09:03:57.348Z,5.20
2022-08-05T09:06:29.899Z,4.50
2022-08-05T09:09:01.846Z,5.10
2022-08-05T09:11:51.071Z,4.70
2022-08-05T09:14:58.425Z,4.70
2022-08-05T09:17:42.256Z,5.10
2022-08-05T09:20:05.867Z,6.40
2022-08-05T09:23:07.612Z,5.80
2022-08-05T09:26:00.353Z,4.00
2022-08-05T09:28:31.841Z,4.30
2022-08-05T09:31:23.394Z,3.80
2022-08-05T09:34:01.458Z,4.20
2022-08-05T09:36:59.441Z,4.20
2022-08-05T09:39:45.536Z,4.10
2022-08-05T09:42:24.017Z,4.00
2022-08-05T09:45:17.656Z,4.60
2022-08-05T09:47:55.184Z,3.90
2022-08-05T09:50:38.435Z,4.50
2022-08-05T09:53:22.713Z,4.00
2022-08-05T09:56:04.002Z,10.50
2022-08-05T09:58:41.975Z,3.50
2022-08-05T10:01:15.687Z,4.00
2022-08-05T10:04:16.022Z,4.10
2022-08-05T10:06:59.528Z,3.20
2022-08-05T10:09:29.855Z,4.50
2022-08-05T10:12:30.562Z,4.20
2022-08-05T10:15:22.597Z,3.30
2022-08-05T10:18:13.031Z,3.60
2022-08-05T10:20:48.836Z,3.50
2022-08-05T10:23:55.971Z,5.40
2022-08-05T10:26:13.875Z,3.40
2022-08-05T10:28:46.512Z,2.70
2022-08-05T10:32:51.790Z,3.60
2022-08-05T10:34:08.884Z,3.00
2022-08-05T10:36:41.893Z,8.50
2022-08-05T10:39:59.130Z,2.90
2022-08-05T10:42:33.934Z,2.90
2022-08-05T10:45:21.530Z,3.00
2022-08-05T10:47:56.705Z,2.50
2022-08-05T10:51:21.913Z,3.20
2022-08-05T10:53:51.396Z,3.40
2022-08-05T10:56:25.981Z,6.50
2022-08-05T10:58:55.092Z,3.20
2022-08-05T11:01:54.082Z,3.10
2022-08-05T11:04:28.190Z,8.70
2022-08-05T11:07:04.789Z,3.30
2022-08-05T11:09:51.536Z,2.90
2022-08-05T11:12:42.332Z,4.40
2022-08-05T11:15:24.153Z,4.30
2022-08-05T11:18:24.746Z,4.10
2022-08-05T11:20:54.936Z,2.80
2022-08-05T11:24:02.691Z,3.30
2022-08-05T11:26:28.526Z,2.80
2022-08-05T11:29:13.871Z,2.50
2022-08-05T11:31:58.537Z,5.90
2022-08-05T11:34:51.393Z,6.40
2022-08-05T11:38:29.053Z,2.40
2022-08-05T11:41:35.639Z,2.60
2022-08-05T11:44:40.230Z,2.60
2022-08-05T11:47:10.512Z,2.40
2022-08-05T11:49:51.035Z,3.40
2022-08-05T11:52:29.744Z,4.30
2022-08-05T11:55:07.534Z,4.90
2022-08-05T11:58:09.352Z,3.50
2022-08-05T12:00:38.472Z,3.00
2022-08-05T12:03:29.349Z,2.60
2022-08-05T12:06:06.556Z,2.40
2022-08-05T12:08:51.254Z,2.30
2022-08-05T12:11:40.418Z,2.20
2022-08-05T12:14:10.585Z,3.00
2022-08-05T12:16:45.201Z,2.60
2022-08-05T12:20:17.159Z,3.40
2022-08-05T12:22:09.393Z,5.40
2022-08-05T12:24:50.497Z,2.50
2022-08-05T12:27:32.761Z,3.10
2022-08-05T12:30:10.579Z,2.20
2022-08-05T12:32:53.848Z,2.30
2022-08-05T12:35:37.246Z,1.90
2022-08-05T12:38:10.908Z,2.00
2022-08-05T12:40:40.091Z,3.60
2022-08-05T12:43:12.863Z,2.20
2022-08-05T12:45:55.560Z,2.90
2022-08-05T12:48:32.372Z,2.50
2022-08-05T12:51:21.706Z,2.40
2022-08-05T12:54:05.106Z,2.90
2022-08-05T12:56:53.822Z,2.30
2022-08-05T12:59:46.427Z,2.60
2022-08-05T13:02:17.081Z,2.20
2022-08-05T13:04:54.383Z,2.90
2022-08-05T13:07:56.194Z,2.70
2022-08-05T13:10:20.194Z,2.60
2022-08-05T13:12:51.077Z,2.30
2022-08-05T13:15:41.373Z,2.50
2022-08-05T13:18:20.518Z,2.80
2022-08-05T13:20:49.976Z,2.60
2022-08-05T13:23:22.705Z,4.30
2022-08-05T13:25:59.682Z,3.20
2022-08-05T13:28:32.345Z,3.50
2022-08-05T13:31:03.291Z,2.40
2022-08-05T13:34:24.373Z,2.20
2022-08-05T13:36:30.988Z,2.40
2022-08-05T13:38:59.794Z,2.40
2022-08-05T13:41:35.924Z,2.30
2022-08-05T13:44:08.022Z,2.60
2022-08-05T13:47:01.715Z,2.70
2022-08-05T13:49:27.171Z,2.70
2022-08-05T13:51:56.432Z,2.40
2022-08-05T13:54:26.544Z,3.50
2022-08-05T13:56:55.325Z,5.70
2022-08-05T14:11:20.646Z,2.10
2022-08-05T14:13:55.037Z,2.50
2022-08-05T14:16:26.368Z,2.90
2022-08-05T14:18:54.978Z,2.50
2022-08-05T14:22:06.864Z,2.40
2022-08-05T14:24:13.698Z,2.60
2022-08-05T14:27:08.376Z,2.70
2022-08-05T14:29:36.584Z,2.70
2022-08-05T14:32:27.277Z,2.30
2022-08-05T14:34:54.663Z,3.00
2022-08-05T14:37:45.623Z,4.40
2022-08-05T14:40:16.913Z,3.00
2022-08-05T14:42:45.636Z,2.40
2022-08-05T14:45:14.154Z,2.40
2022-08-05T14:48:05.368Z,3.20
2022-08-05T14:50:32.661Z,2.40
2022-08-05T14:53:01.519Z,2.80
2022-08-05T14:55:39.297Z,2.50
2022-08-05T14:58:11.646Z,2.70
2022-08-05T15:00:59.739Z,2.60
2022-08-05T15:03:33.968Z,2.70
2022-08-05T15:06:14.987Z,2.50
2022-08-05T15:08:59.233Z,3.20
2022-08-05T15:11:51.809Z,2.90
2022-08-05T15:14:34.768Z,3.10
2022-08-05T15:17:44.614Z,3.30
2022-08-05T15:19:58.380Z,7.40
2022-08-05T15:22:28.199Z,4.90
2022-08-05T15:24:59.196Z,3.60
2022-08-05T15:27:32.059Z,2.80
2022-08-05T15:30:00.975Z,2.90
2022-08-05T15:32:29.682Z,2.90
2022-08-05T15:35:10.370Z,2.60
2022-08-05T15:38:32.741Z,3.10
2022-08-05T15:41:21.360Z,2.50
2022-08-05T15:43:45.404Z,2.60
2022-08-05T15:46:15.760Z,3.10
2022-08-05T15:48:51.998Z,2.80
2022-08-05T15:52:12.459Z,3.00
2022-08-05T15:54:16.894Z,2.60
2022-08-05T15:56:45.491Z,3.20
2022-08-05T15:59:20.028Z,3.30
2022-08-05T16:01:53.284Z,3.40
2022-08-05T16:04:25.598Z,3.40
2022-08-05T16:06:55.520Z,4.30
2022-08-05T16:09:25.397Z,3.30
2022-08-05T16:11:54.464Z,3.90
2022-08-05T16:14:23.875Z,3.90
2022-08-05T16:16:54.603Z,3.30
2022-08-05T16:20:03.621Z,3.20
2022-08-05T16:22:13.332Z,3.20
2022-08-05T16:24:51.829Z,3.10
2022-08-05T16:27:46.802Z,3.10
2022-08-05T16:30:25.787Z,2.90
2022-08-05T16:32:55.487Z,3.00
2022-08-05T16:35:28.651Z,3.10
2022-08-05T16:38:18.678Z,2.70
2022-08-05T16:40:55.145Z,2.70
2022-08-05T16:43:35.052Z,2.80
2022-08-05T16:46:13.102Z,4.00
2022-08-05T16:48:53.306Z,6.10
2022-08-05T16:51:42.581Z,3.40
2022-08-05T16:54:26.159Z,3.20
2022-08-05T16:56:56.047Z,3.50
2022-08-05T16:59:24.825Z,3.60
2022-08-05T17:01:57.113Z,2.80
2022-08-05T17:04:28.241Z,3.50
2022-08-05T17:07:03.349Z,2.70
2022-08-05T17:09:58.290Z,3.10
2022-08-05T17:12:50.583Z,2.50
2022-08-05T17:15:19.574Z,3.00
2022-08-05T17:17:55.427Z,2.50
2022-08-05T17:20:25.088Z,2.60
2022-08-05T17:22:58.975Z,2.60
2022-08-05T17:28:10.028Z,2.60
2022-08-05T17:30:42.754Z,8.80
2022-08-05T17:33:21.629Z,8.60
2022-08-05T17:36:08.944Z,2.70
2022-08-05T17:38:39.947Z,7.70
2022-08-05T17:41:22.958Z,2.50
2022-08-05T17:43:58.577Z,2.60
2022-08-05T17:46:30.562Z,3.00
2022-08-05T17:49:00.057Z,6.50
2022-08-05T17:51:30.091Z,28.30
2022-08-05T17:54:09.360Z,11.60
2022-08-05T17:56:38.430Z,23.80
2022-08-05T17:59:06.981Z,19.40
2022-08-05T18:01:49.249Z,48.00
2022-08-05T18:04:21.471Z,42.10
2022-08-05T18:07:00.306Z,41.90
2022-08-05T18:10:00.032Z,89.60
2022-08-05T18:12:22.354Z,49.50
2022-08-05T18:14:52.941Z,25.80
2022-08-05T18:17:59.024Z,12.80
2022-08-05T18:20:14.100Z,12.80
2022-08-05T18:22:53.783Z,15.40
2022-08-05T18:25:25.211Z,19.20
2022-08-05T18:28:05.221Z,29.50
2022-08-05T18:30:34.922Z,36.30
2022-08-05T18:33:03.675Z,27.30
2022-08-05T18:36:01.371Z,19.70
2022-08-05T18:38:26.468Z,25.50
2022-08-05T18:41:55.476Z,42.40
2022-08-05T18:43:49.139Z,42.80
2022-08-05T18:46:19.788Z,39.10
2022-08-05T18:48:53.912Z,26.90
2022-08-05T18:52:06.301Z,15.10
2022-08-05T18:54:31.939Z,25.70
2022-08-05T18:57:02.684Z,43.90
2022-08-05T18:59:43.586Z,45.40
2022-08-05T19:02:26.681Z,9.50
2022-08-05T19:05:02.885Z,9.10
2022-08-05T19:07:50.269Z,6.80
2022-08-05T19:10:26.600Z,4.80
2022-08-05T19:12:57.615Z,6.30
2022-08-05T19:15:57.845Z,6.00
2022-08-05T19:18:20.811Z,10.00
2022-08-05T19:20:52.896Z,8.50
2022-08-05T19:24:03.502Z,9.30
2022-08-05T19:26:11.955Z,6.80
2022-08-05T19:28:44.597Z,6.50
2022-08-05T19:31:17.781Z,5.80
2022-08-05T19:33:56.249Z,10.80
2022-08-05T19:36:26.511Z,7.60
2022-08-05T19:39:01.171Z,6.70
2022-08-05T19:41:58.293Z,11.70
2022-08-05T19:44:20.249Z,6.20
2022-08-05T19:46:50.161Z,10.40
2022-08-05T19:49:19.078Z,10.90
2022-08-05T19:52:09.079Z,6.40
2022-08-05T19:54:36.873Z,6.70
2022-08-05T19:57:09.865Z,8.20
2022-08-05T19:59:54.663Z,9.40
2022-08-05T20:02:31.436Z,8.90
2022-08-05T20:05:00.435Z,8.80
2022-08-05T20:07:46.346Z,9.30
2022-08-05T20:10:22.352Z,13.30
2022-08-05T20:12:54.964Z,8.60
2022-08-05T20:15:51.779Z,8.80
2022-08-05T20:18:33.821Z,7.30
2022-08-05T20:21:01.378Z,8.00
2022-08-05T20:23:40.033Z,7.20
2022-08-05T20:26:24.723Z,5.80
2022-08-05T20:28:57.594Z,6.90
2022-08-05T20:31:42.063Z,7.00
2022-08-05T20:34:18.614Z,5.40
2022-08-05T20:36:48.760Z,5.70
2022-08-05T20:39:18.779Z,5.90
2022-08-05T20:41:48.173Z,4.90
2022-08-05T20:44:29.401Z,6.90
2022-08-05T20:47:03.503Z,4.80
2022-08-05T20:49:33.223Z,9.40
2022-08-05T20:52:10.599Z,5.70
2022-08-05T20:54:55.266Z,5.20
2022-08-05T20:57:43.408Z,5.20
2022-08-05T21:00:41.232Z,18.40
2022-08-05T21:03:07.918Z,4.40
2022-08-05T21:05:54.783Z,4.50
2022-08-05T21:08:28.217Z,3.20
2022-08-05T21:11:12.978Z,4.10
2022-08-05T21:14:01.468Z,4.00
2022-08-05T21:16:30.849Z,4.10
2022-08-05T21:19:01.605Z,3.90
2022-08-05T21:21:39.896Z,3.70
2022-08-05T21:24:19.350Z,3.60
2022-08-05T21:26:58.037Z,3.60
2022-08-05T21:29:32.142Z,3.90
2022-08-05T21:32:03.004Z,3.40
2022-08-05T21:34:33.142Z,3.70
2022-08-05T21:37:05.218Z,3.60
2022-08-05T21:39:40.263Z,9.60
2022-08-05T21:42:43.938Z,7.00
2022-08-05T21:44:59.759Z,6.80
2022-08-05T21:47:55.029Z,4.60
2022-08-05T21:50:17.769Z,4.30
2022-08-05T21:52:47.338Z,3.90
2022-08-05T21:55:18.143Z,6.50
2022-08-05T21:58:06.886Z,5.50
2022-08-05T22:00:40.144Z,4.00
2022-08-05T22:03:15.264Z,4.70
2022-08-05T22:05:48.932Z,5.30
2022-08-05T22:08:22.141Z,4.80
2022-08-05T22:10:53.529Z,3.90
2022-08-05T22:14:32.384Z,3.80
2022-08-05T22:16:26.059Z,4.90
2022-08-05T22:18:59.031Z,3.80
2022-08-05T22:21:27.675Z,3.80
2022-08-05T22:24:40.344Z,4.20
2022-08-05T22:27:23.106Z,3.50
2022-08-05T22:29:54.271Z,3.90
2022-08-05T22:32:23.166Z,4.60
2022-08-05T22:34:52.622Z,4.30
2022-08-05T22:37:22.396Z,4.60
2022-08-05T22:39:51.084Z,4.20
2022-08-05T22:42:26.218Z,4.40
2022-08-05T22:44:57.034Z,5.50
2022-08-05T22:47:28.897Z,5.70
2022-08-05T22:50:20.329Z,5.70
2022-08-05T22:52:52.690Z,3.50
2022-08-05T22:55:23.697Z,4.00
2022-08-05T22:57:53.746Z,7.60
2022-08-05T23:00:24.100Z,4.30
2022-08-05T23:02:56.340Z,4.90
2022-08-05T23:05:27.023Z,4.40
2022-08-05T23:07:55.637Z,3.80
2022-08-05T23:10:24.498Z,3.90
2022-08-05T23:12:55.586Z,4.40
2022-08-05T23:15:29.420Z,4.20
2022-08-05T23:18:06.205Z,4.70
2022-08-05T23:20:40.504Z,3.70
2022-08-05T23:23:11.932Z,5.80
2022-08-05T23:25:52.100Z,4.30
2022-08-05T23:28:29.070Z,5.30
2022-08-05T23:31:15.942Z,4.80
2022-08-05T23:34:04.226Z,5.30
2022-08-05T23:36:38.575Z,3.90
2022-08-05T23:39:09.210Z,4.70
2022-08-05T23:41:41.009Z,5.10
2022-08-05T23:44:17.032Z,5.60
2022-08-05T23:46:48.693Z,6.70
2022-08-05T23:49:23.663Z,5.10
2022-08-05T23:52:12.785Z,4.30
2022-08-05T23:54:47.939Z,6.40
2022-08-05T23:57:16.736Z,4.80
